Time;durP1;ratioP1;P1;durP2;ratioP2;P2;SDS_P1;SDS_P2;PMS_P1;PMS_P2;Temp;Humidity;BMP_temperature;BMP_pressure;BME280_temperature;BME280_humidity;BME280_pressure;Samples;Min_cycle;Max_cycle;Signal;HPM_P1;HPM_P2
2020/12/01 02:51:27;;;;;;;47.73;43.37;;;2.40;99.90;;;;;;5066898;23;20495;-75
2020/12/01 02:53:53;;;;;;;50.03;44.73;;;2.40;99.90;;;;;;4966106;28;20946;-76
2020/12/01 02:56:19;;;;;;;45.53;41.03;;;2.40;99.90;;;;;;4965272;28;20462;-76
2020/12/01 02:58:45;;;;;;;44.83;40.63;;;2.40;99.90;;;;;;4973986;28;20439;-76
2020/12/01 03:01:11;;;;;;;42.77;38.47;;;2.40;99.90;;;;;;4974029;28;20447;-75
2020/12/01 03:03:37;;;;;;;44.53;40.03;;;2.40;99.90;;;;;;4974114;28;20483;-76
2020/12/01 03:06:07;;;;;;;38.77;35.17;;;2.40;99.90;;;;;;4973906;28;20447;-75
2020/12/01 03:08:34;;;;;;;44.10;39.80;;;2.40;99.90;;;;;;4973704;28;20452;-75
2020/12/01 03:11:00;;;;;;;45.20;41.03;;;2.30;99.90;;;;;;4973689;28;20455;-75
2020/12/01 03:13:26;;;;;;;42.50;38.37;;;2.40;99.90;;;;;;4973864;28;20443;-76
2020/12/01 03:15:54;;;;;;;41.20;37.50;;;2.30;99.90;;;;;;4973948;28;20451;-75
2020/12/01 03:18:21;;;;;;;45.53;40.53;;;2.30;99.90;;;;;;4973808;28;20483;-76
2020/12/01 03:20:47;;;;;;;47.87;42.67;;;2.30;99.90;;;;;;4973594;28;21216;-76
2020/12/01 03:23:13;;;;;;;46.00;41.27;;;2.30;99.90;;;;;;4973189;28;20444;-76
2020/12/01 03:25:40;;;;;;;48.90;44.03;;;2.30;99.90;;;;;;4973767;28;20444;-75
2020/12/01 03:28:07;;;;;;;48.03;43.00;;;2.30;99.90;;;;;;4973673;28;20455;-76
2020/12/01 03:30:33;;;;;;;43.17;39.07;;;2.30;99.90;;;;;;4973459;28;20439;-76
2020/12/01 03:32:59;;;;;;;43.20;38.93;;;2.30;99.90;;;;;;4973296;28;20490;-76
2020/12/01 03:35:27;;;;;;;45.93;41.17;;;2.40;99.90;;;;;;4973540;28;20470;-76
2020/12/01 03:37:53;;;;;;;47.47;42.33;;;2.40;99.90;;;;;;4973477;28;20458;-75
2020/12/01 03:40:20;;;;;;;43.80;39.10;;;2.40;99.90;;;;;;4973359;28;20443;-76
2020/12/01 03:42:47;;;;;;;45.27;40.50;;;2.30;99.90;;;;;;4973310;28;20854;-75
2020/12/01 03:45:13;;;;;;;48.60;43.20;;;2.30;99.90;;;;;;4973197;28;20443;-74
2020/12/01 03:47:39;;;;;;;46.20;41.40;;;2.30;99.90;;;;;;4973372;28;20443;-75
2020/12/01 03:50:06;;;;;;;47.27;40.23;;;2.30;99.90;;;;;;4954399;28;20484;-75
2020/12/01 03:52:32;;;;;;;38.63;34.73;;;2.20;99.90;;;;;;4953576;28;20487;-74
2020/12/01 03:54:58;;;;;;;43.27;38.70;;;2.30;99.90;;;;;;4953604;28;20440;-74
2020/12/01 03:57:24;;;;;;;41.03;36.67;;;2.30;99.90;;;;;;4953602;28;20472;-74
2020/12/01 03:59:51;;;;;;;42.17;37.77;;;2.30;99.90;;;;;;4953456;29;20950;-74
2020/12/01 04:02:17;;;;;;;43.17;38.70;;;2.30;99.90;;;;;;4953655;29;20451;-74
2020/12/01 04:04:43;;;;;;;41.87;37.27;;;2.40;99.90;;;;;;4953559;29;20437;-74
2020/12/01 04:07:09;;;;;;;39.97;36.17;;;2.30;99.90;;;;;;4953611;28;20452;-74
2020/12/01 04:09:36;;;;;;;42.97;38.70;;;2.50;99.90;;;;;;4953344;28;20445;-74
2020/12/01 04:12:02;;;;;;;42.93;38.53;;;2.50;99.90;;;;;;4953441;28;20843;-75
2020/12/01 04:14:28;;;;;;;43.30;39.00;;;2.50;99.90;;;;;;4953290;29;20479;-74
2020/12/01 04:16:55;;;;;;;44.37;39.60;;;2.50;99.90;;;;;;4953335;29;20444;-73
2020/12/01 04:19:21;;;;;;;41.33;37.23;;;2.50;99.90;;;;;;4953536;29;20441;-73
2020/12/01 04:21:47;;;;;;;46.77;42.23;;;2.50;99.90;;;;;;4953267;28;20436;-74
2020/12/01 04:24:13;;;;;;;43.93;39.73;;;2.60;99.90;;;;;;4953103;28;20943;-74
2020/12/01 04:26:39;;;;;;;42.70;38.80;;;2.60;99.90;;;;;;4953225;28;20449;-75
2020/12/01 04:29:06;;;;;;;47.77;42.90;;;2.60;99.90;;;;;;4953003;28;20453;-74
2020/12/01 04:31:32;;;;;;;52.73;47.40;;;2.60;99.90;;;;;;4952980;28;20695;-74
2020/12/01 04:33:59;;;;;;;49.00;44.23;;;2.60;99.90;;;;;;4952811;29;20539;-74
2020/12/01 04:36:25;;;;;;;45.80;41.53;;;2.60;99.90;;;;;;4952608;29;20452;-74
2020/12/01 04:38:51;;;;;;;50.13;43.43;;;2.70;99.90;;;;;;4952981;28;20482;-73
2020/12/01 04:41:17;;;;;;;43.73;39.83;;;2.60;99.90;;;;;;4953091;28;20460;-73
2020/12/01 04:43:47;;;;;;;47.03;42.00;;;2.60;99.90;;;;;;4953045;28;20812;-73
2020/12/01 04:46:18;;;;;;;44.07;39.50;;;2.60;99.90;;;;;;4952717;29;20930;-74
2020/12/01 04:48:47;;;;;;;49.63;44.47;;;2.70;99.90;;;;;;4953007;28;20469;-74
2020/12/01 04:51:38;;;;;;;47.07;42.17;;;2.70;99.90;;;;;;4955702;29;20486;-73
2020/12/01 04:54:42;;;;;;;44.43;39.93;;;2.70;99.90;;;;;;4954125;28;20807;-74
2020/12/01 04:57:27;;;;;;;43.53;39.00;;;2.80;99.90;;;;;;4952694;28;20452;-75
2020/12/01 05:00:09;;;;;;;41.53;38.03;;;2.90;99.90;;;;;;4952908;28;20793;-75
2020/12/01 05:02:59;;;;;;;42.70;38.33;;;2.90;99.90;;;;;;4953181;28;20440;-76
2020/12/01 05:05:56;;;;;;;42.30;38.40;;;2.90;99.90;;;;;;4952655;28;20453;-75
2020/12/01 05:08:40;;;;;;;45.97;39.67;;;2.90;99.90;;;;;;4946740;28;20948;-76
2020/12/01 05:11:18;;;;;;;44.43;40.33;;;2.90;99.90;;;;;;4952604;28;20452;-76
2020/12/01 05:13:48;;;;;;;45.30;40.90;;;2.90;99.90;;;;;;4952630;29;20452;-76
2020/12/01 05:16:26;;;;;;;50.40;45.73;;;2.90;99.90;;;;;;4952276;29;20883;-75
2020/12/01 05:18:52;;;;;;;46.00;41.30;;;3.00;99.90;;;;;;4952715;28;20471;-74
2020/12/01 05:21:23;;;;;;;47.17;42.27;;;2.90;99.90;;;;;;4952028;29;20689;-75
2020/12/01 05:23:50;;;;;;;48.70;43.67;;;2.90;99.90;;;;;;4952506;28;20870;-74
2020/12/01 05:26:19;;;;;;;48.37;43.43;;;2.90;99.90;;;;;;4952426;29;20460;-75
2020/12/01 05:28:47;;;;;;;49.23;44.07;;;2.90;99.90;;;;;;4951970;28;20441;-75
2020/12/01 05:31:16;;;;;;;50.13;44.77;;;3.10;99.90;;;;;;4951722;29;20453;-74
2020/12/01 05:33:42;;;;;;;50.23;45.30;;;3.20;99.90;;;;;;4948948;28;20444;-76
2020/12/01 05:36:17;;;;;;;50.90;45.90;;;3.30;99.90;;;;;;4952326;29;20448;-75
2020/12/01 05:38:55;;;;;;;51.23;45.87;;;3.30;99.90;;;;;;4952116;28;20452;-75
2020/12/01 05:41:24;;;;;;;50.80;45.53;;;3.40;99.90;;;;;;4952229;28;20495;-75
2020/12/01 05:43:55;;;;;;;53.07;47.53;;;3.20;99.90;;;;;;4952348;28;20445;-75
2020/12/01 05:46:27;;;;;;;51.87;46.53;;;3.10;99.90;;;;;;4953317;28;20804;-75
2020/12/01 05:49:18;;;;;;;53.77;47.60;;;3.10;99.90;;;;;;4955969;28;20479;-75
2020/12/01 05:51:47;;;;;;;51.43;46.27;;;3.10;99.90;;;;;;4956299;28;20495;-75
2020/12/01 05:54:17;;;;;;;51.83;46.40;;;3.30;99.90;;;;;;4956436;29;20827;-75
2020/12/01 05:56:53;;;;;;;53.63;48.03;;;3.30;99.90;;;;;;4955783;28;20452;-76
2020/12/01 05:59:22;;;;;;;58.70;48.27;;;3.40;99.90;;;;;;4955946;28;20451;-75
2020/12/01 06:01:50;;;;;;;49.73;44.70;;;3.40;99.90;;;;;;4955816;28;20525;-75
2020/12/01 06:04:19;;;;;;;51.70;46.80;;;3.40;99.90;;;;;;4955915;28;20524;-75
2020/12/01 06:06:58;;;;;;;54.10;48.60;;;3.30;99.90;;;;;;4955980;29;20444;-75
2020/12/01 06:09:59;;;;;;;52.00;46.97;;;3.20;99.90;;;;;;4956166;28;20461;-76
2020/12/01 06:12:52;;;;;;;50.00;45.10;;;3.30;99.90;;;;;;4955620;28;20554;-75
2020/12/01 06:15:20;;;;;;;52.63;47.30;;;3.40;99.90;;;;;;4955983;28;20441;-76
2020/12/01 06:17:52;;;;;;;55.57;49.83;;;3.30;99.90;;;;;;4955474;28;20452;-75
2020/12/01 06:20:26;;;;;;;58.70;52.60;;;3.10;99.90;;;;;;4955490;29;20451;-74
2020/12/01 06:23:29;;;;;;;53.70;48.70;;;3.10;99.90;;;;;;4955639;29;20455;-73
2020/12/01 06:26:14;;;;;;;55.17;49.70;;;3.00;99.90;;;;;;4955568;28;20448;-73
2020/12/01 06:29:17;;;;;;;53.63;48.50;;;2.90;99.90;;;;;;4955666;28;20440;-76
2020/12/01 06:31:57;;;;;;;52.17;47.00;;;2.80;99.90;;;;;;4933165;29;20484;-75
2020/12/01 06:34:43;;;;;;;55.67;50.07;;;2.70;99.90;;;;;;4955686;28;20463;-76
2020/12/01 06:37:35;;;;;;;52.77;47.60;;;2.70;99.90;;;;;;4955687;28;20451;-76
2020/12/01 06:40:26;;;;;;;50.23;45.77;;;2.80;99.90;;;;;;4955299;28;20454;-76
2020/12/01 06:42:58;;;;;;;57.17;48.83;;;2.80;99.90;;;;;;4955233;28;20965;-75
2020/12/01 06:45:31;;;;;;;59.47;53.37;;;2.80;99.90;;;;;;4955260;28;20441;-75
2020/12/01 06:48:04;;;;;;;57.60;49.80;;;2.90;99.90;;;;;;4955020;28;20942;-74
2020/12/01 06:50:31;;;;;;;57.37;51.07;;;2.80;99.90;;;;;;4954790;29;20516;-74
2020/12/01 06:52:59;;;;;;;62.13;55.80;;;2.90;99.90;;;;;;4955100;29;20491;-74
2020/12/01 06:55:49;;;;;;;69.53;60.40;;;2.90;99.90;;;;;;4955454;28;20448;-74
2020/12/01 06:58:21;;;;;;;67.73;59.23;;;2.90;99.90;;;;;;4953958;28;20452;-75
2020/12/01 07:00:48;;;;;;;59.47;53.27;;;2.90;99.90;;;;;;4954409;28;20444;-75
2020/12/01 07:03:23;;;;;;;64.13;57.10;;;3.00;99.90;;;;;;4954350;28;20452;-75
2020/12/01 07:05:50;;;;;;;61.40;55.00;;;2.90;99.90;;;;;;4954749;28;20463;-75
2020/12/01 07:08:26;;;;;;;64.13;56.90;;;2.90;99.90;;;;;;4954564;28;20455;-74
2020/12/01 07:11:05;;;;;;;62.40;55.70;;;2.90;99.90;;;;;;4954524;28;20447;-75
2020/12/01 07:13:39;;;;;;;61.67;54.93;;;2.90;99.90;;;;;;4954360;28;21020;-74
2020/12/01 07:16:21;;;;;;;60.67;54.77;;;2.90;99.90;;;;;;4954994;29;20432;-74
2020/12/01 07:18:47;;;;;;;65.33;55.47;;;2.90;99.90;;;;;;4954576;29;20456;-75
2020/12/01 07:21:23;;;;;;;69.80;57.97;;;2.90;99.90;;;;;;4954201;29;20939;-75
2020/12/01 07:23:59;;;;;;;62.30;56.00;;;2.90;99.90;;;;;;4954208;28;20444;-76
2020/12/01 07:26:38;;;;;;;62.00;54.40;;;2.80;99.90;;;;;;4954669;29;20482;-75
2020/12/01 07:29:23;;;;;;;62.93;55.93;;;2.80;99.90;;;;;;4954172;28;20444;-75
2020/12/01 07:31:50;;;;;;;72.83;58.63;;;2.80;99.90;;;;;;4953191;29;20483;-74
2020/12/01 07:34:27;;;;;;;66.90;58.03;;;2.90;99.90;;;;;;4954526;29;20455;-74
2020/12/01 07:36:58;;;;;;;65.77;59.07;;;2.90;99.90;;;;;;4955001;28;20448;-75
2020/12/01 07:39:27;;;;;;;67.90;59.50;;;3.00;99.90;;;;;;4959569;28;20448;-74
2020/12/01 07:41:57;;;;;;;73.97;60.80;;;3.00;99.90;;;;;;4963210;28;20441;-74
2020/12/01 07:44:25;;;;;;;74.63;59.40;;;3.00;99.90;;;;;;4954981;28;20445;-74
2020/12/01 07:47:11;;;;;;;68.40;60.57;;;2.90;99.90;;;;;;4954145;28;20456;-76
2020/12/01 07:49:37;;;;;;;62.40;56.47;;;2.90;99.90;;;;;;4953857;28;20484;-75
2020/12/01 07:52:20;;;;;;;72.90;58.57;;;2.90;99.90;;;;;;4953723;28;20492;-75
2020/12/01 07:54:50;;;;;;;64.83;55.70;;;2.90;99.90;;;;;;4953924;28;20793;-75
2020/12/01 07:57:17;;;;;;;66.33;57.50;;;2.90;99.90;;;;;;4953995;28;20824;-75
2020/12/01 07:59:46;;;;;;;64.00;57.13;;;3.00;99.90;;;;;;4953970;28;20452;-75
2020/12/01 08:02:14;;;;;;;62.90;56.13;;;3.00;99.90;;;;;;4953683;28;20441;-75
2020/12/01 08:04:40;;;;;;;62.83;55.20;;;3.10;99.90;;;;;;4953438;28;20459;-74
2020/12/01 08:07:06;;;;;;;60.13;54.20;;;3.20;99.90;;;;;;4953732;28;20460;-75
2020/12/01 08:09:33;;;;;;;64.60;57.90;;;3.20;99.90;;;;;;4953592;28;20962;-75
2020/12/01 08:12:04;;;;;;;62.47;54.73;;;3.30;99.90;;;;;;4953471;29;20843;-75
2020/12/01 08:14:31;;;;;;;67.57;55.27;;;3.30;99.90;;;;;;4953367;28;20449;-76
2020/12/01 08:17:03;;;;;;;60.53;54.37;;;3.20;99.90;;;;;;4953634;28;20451;-76
2020/12/01 08:19:30;;;;;;;63.23;54.80;;;3.20;99.90;;;;;;4953710;28;20452;-79
2020/12/01 08:21:57;;;;;;;70.00;57.23;;;3.20;99.90;;;;;;4953592;29;20447;-75
2020/12/01 08:24:25;;;;;;;60.97;54.50;;;3.10;99.90;;;;;;4953012;28;20441;-76
2020/12/01 08:27:03;;;;;;;61.10;55.10;;;3.20;99.90;;;;;;4953225;29;20452;-76
2020/12/01 08:29:33;;;;;;;61.10;54.80;;;3.20;99.90;;;;;;4952835;28;20966;-76
2020/12/01 08:32:21;;;;;;;61.13;54.47;;;3.20;99.90;;;;;;4953136;28;20485;-75
2020/12/01 08:34:51;;;;;;;58.83;52.80;;;3.10;99.90;;;;;;4953057;29;20452;-76
2020/12/01 08:37:34;;;;;;;57.90;52.33;;;3.20;99.90;;;;;;4953138;28;20470;-76
2020/12/01 08:40:11;;;;;;;55.53;49.90;;;3.20;99.90;;;;;;4953410;28;20452;-77
2020/12/01 08:42:51;;;;;;;58.63;53.00;;;3.10;99.90;;;;;;4953229;29;20444;-75
2020/12/01 08:45:36;;;;;;;61.87;55.37;;;3.10;99.90;;;;;;4952709;28;20459;-77
2020/12/01 08:48:06;;;;;;;64.07;55.27;;;3.10;99.90;;;;;;4952620;28;20582;-77
2020/12/01 08:50:34;;;;;;;63.90;57.57;;;3.20;99.90;;;;;;4952609;29;20468;-76
2020/12/01 08:53:11;;;;;;;60.70;54.17;;;3.20;99.90;;;;;;4952478;28;20499;-76
2020/12/01 08:55:45;;;;;;;63.53;55.00;;;3.40;99.90;;;;;;4953147;29;20452;-74
2020/12/01 08:58:22;;;;;;;58.77;52.63;;;3.40;99.90;;;;;;4952841;28;20815;-74
2020/12/01 09:01:01;;;;;;;69.63;54.80;;;3.50;99.90;;;;;;4952812;28;20454;-74
2020/12/01 09:03:29;;;;;;;59.57;53.37;;;3.50;99.90;;;;;;4952256;29;20949;-75
2020/12/01 09:05:56;;;;;;;59.97;53.67;;;3.60;99.90;;;;;;4952868;28;20448;-73
2020/12/01 09:08:38;;;;;;;62.27;55.87;;;3.60;99.90;;;;;;4950738;28;20452;-74
2020/12/01 09:14:11;;;;;;;62.40;54.20;;;3.40;99.90;;;;;;4952856;28;20472;-74
2020/12/01 09:16:49;;;;;;;60.27;53.80;;;3.30;99.90;;;;;;4951439;28;20474;-75
2020/12/01 09:22:07;;;;;;;70.67;60.00;;;3.30;99.90;;;;;;4930728;28;20516;-74
2020/12/01 09:24:33;;;;;;;66.00;59.37;;;3.40;99.90;;;;;;4952854;28;20666;-75
2020/12/01 09:27:05;;;;;;;71.40;59.90;;;3.40;99.90;;;;;;4952868;29;20451;-74
2020/12/01 09:29:31;;;;;;;67.60;57.63;;;3.50;99.90;;;;;;4952834;28;20444;-75
2020/12/01 09:31:58;;;;;;;62.60;54.80;;;3.60;99.90;;;;;;4952483;28;20989;-75
2020/12/01 09:34:30;;;;;;;66.07;57.20;;;3.70;99.90;;;;;;4952708;28;20440;-74
2020/12/01 09:36:58;;;;;;;63.60;56.60;;;3.70;99.90;;;;;;4952819;28;20441;-75
2020/12/01 09:39:24;;;;;;;60.70;54.27;;;3.80;99.90;;;;;;4953022;28;20818;-75
2020/12/01 09:42:00;;;;;;;60.70;54.10;;;3.70;99.90;;;;;;4953079;28;20472;-75
2020/12/01 09:44:45;;;;;;;64.77;56.30;;;3.70;99.90;;;;;;4952759;28;20448;-75
2020/12/01 09:47:16;;;;;;;65.50;54.27;;;3.70;99.90;;;;;;4952781;28;20459;-75
2020/12/01 09:49:43;;;;;;;60.93;54.27;;;3.70;99.90;;;;;;4952339;28;20490;-75
2020/12/01 09:52:13;;;;;;;69.33;53.83;;;3.70;99.90;;;;;;4952669;28;20480;-75
2020/12/01 09:54:44;;;;;;;61.17;50.50;;;3.70;99.90;;;;;;4952880;28;20445;-75
2020/12/01 09:57:13;;;;;;;58.73;52.70;;;3.80;99.90;;;;;;4952444;29;20464;-75
2020/12/01 09:59:52;;;;;;;58.50;52.67;;;3.70;99.90;;;;;;4952665;28;20787;-76
2020/12/01 10:05:14;;;;;;;59.97;54.23;;;3.50;99.90;;;;;;4940618;28;20429;-74
2020/12/01 10:10:50;;;;;;;67.73;54.23;;;3.70;99.90;;;;;;4952511;28;20507;-77
2020/12/01 10:13:33;;;;;;;56.30;50.27;;;3.60;99.90;;;;;;4952408;28;20496;-76
2020/12/01 10:19:18;;;;;;;61.87;52.97;;;3.60;99.90;;;;;;4952230;29;20484;-76
2020/12/01 10:35:40;;;;;;;54.40;49.53;;;3.90;99.90;;;;;;4958610;28;20486;-76
2020/12/01 10:38:07;;;;;;;52.60;47.80;;;3.90;99.90;;;;;;4955698;28;20969;-77
2020/12/01 10:40:33;;;;;;;54.40;49.20;;;4.10;99.90;;;;;;4955900;28;20983;-76
2020/12/01 10:43:00;;;;;;;52.97;48.07;;;4.20;99.90;;;;;;4955611;28;20451;-77
2020/12/01 10:45:28;;;;;;;51.93;46.97;;;4.20;99.90;;;;;;4955590;28;20455;-76
2020/12/01 10:47:55;;;;;;;51.53;47.00;;;4.20;99.90;;;;;;4955376;28;20453;-76
2020/12/01 10:50:24;;;;;;;49.67;45.20;;;4.10;99.90;;;;;;4954999;28;20472;-76
2020/12/01 10:52:50;;;;;;;54.63;49.37;;;4.10;99.90;;;;;;4955317;28;21009;-73
2020/12/01 10:55:22;;;;;;;52.97;47.67;;;4.10;99.90;;;;;;4955366;28;20451;-76
2020/12/01 10:57:48;;;;;;;52.33;47.83;;;4.20;99.90;;;;;;4955337;28;20457;-75
2020/12/01 11:00:14;;;;;;;53.00;47.80;;;4.10;99.90;;;;;;4955208;28;20452;-77
2020/12/01 11:02:40;;;;;;;52.83;48.17;;;4.10;99.90;;;;;;4955067;28;20457;-77
2020/12/01 11:05:09;;;;;;;55.27;50.40;;;4.00;99.90;;;;;;4955210;28;20799;-76
2020/12/01 11:07:35;;;;;;;52.07;47.17;;;4.00;99.90;;;;;;4955009;28;20935;-76
2020/12/01 11:10:01;;;;;;;49.27;44.77;;;4.10;99.90;;;;;;4955232;28;20444;-77
2020/12/01 11:12:28;;;;;;;52.40;47.30;;;4.10;99.90;;;;;;4954950;28;20488;-77
2020/12/01 11:14:54;;;;;;;55.10;49.97;;;4.00;99.90;;;;;;4955255;28;20938;-75
2020/12/01 11:17:20;;;;;;;52.80;47.80;;;4.00;99.90;;;;;;4955043;28;20491;-76
2020/12/01 11:19:46;;;;;;;51.07;46.20;;;4.00;99.90;;;;;;4954924;28;20461;-75
2020/12/01 11:22:13;;;;;;;53.03;48.20;;;3.90;99.90;;;;;;4954795;28;20441;-76
2020/12/01 11:24:39;;;;;;;52.30;47.80;;;3.80;99.90;;;;;;4954719;28;20472;-75
2020/12/01 11:27:06;;;;;;;50.27;46.00;;;3.80;99.90;;;;;;4954766;29;20934;-76
2020/12/01 11:29:33;;;;;;;50.13;45.87;;;3.80;99.90;;;;;;4954994;29;20459;-76
2020/12/01 11:32:00;;;;;;;49.83;45.10;;;3.80;99.90;;;;;;4954678;29;20951;-76
2020/12/01 11:34:26;;;;;;;47.27;42.97;;;3.80;99.90;;;;;;4954704;28;20954;-75
2020/12/01 11:36:54;;;;;;;47.17;43.33;;;3.80;99.90;;;;;;4954744;28;20448;-77
2020/12/01 11:39:21;;;;;;;50.40;45.83;;;3.80;99.90;;;;;;4954646;28;20456;-76
2020/12/01 11:41:47;;;;;;;47.23;43.17;;;3.70;99.90;;;;;;4954612;28;20769;-76
2020/12/01 11:44:14;;;;;;;50.87;46.37;;;3.70;99.90;;;;;;4954121;28;20472;-76
2020/12/01 11:46:41;;;;;;;45.67;41.93;;;3.70;99.90;;;;;;4954596;28;20455;-75
2020/12/01 11:49:08;;;;;;;45.87;42.10;;;3.70;99.90;;;;;;4954408;28;20527;-75
2020/12/01 11:51:37;;;;;;;46.00;42.20;;;3.70;99.90;;;;;;4954083;28;20476;-76
2020/12/01 11:54:04;;;;;;;44.67;41.27;;;3.60;99.90;;;;;;4954301;28;20812;-75
2020/12/01 11:56:30;;;;;;;47.73;43.40;;;3.70;99.90;;;;;;4954242;28;20769;-76
2020/12/01 11:58:57;;;;;;;46.03;42.27;;;3.70;99.90;;;;;;4954229;28;20449;-76
2020/12/01 12:01:23;;;;;;;48.77;44.10;;;3.80;99.90;;;;;;4954251;28;20452;-76
2020/12/01 12:03:50;;;;;;;46.20;42.47;;;3.90;99.90;;;;;;4953867;28;20472;-75
2020/12/01 12:06:17;;;;;;;47.10;42.60;;;4.00;99.90;;;;;;4954124;28;20797;-76
2020/12/01 12:08:43;;;;;;;45.93;42.27;;;4.00;99.90;;;;;;4953916;29;20607;-75
2020/12/01 12:11:10;;;;;;;47.07;43.07;;;4.00;99.90;;;;;;4954132;28;20754;-76
2020/12/01 12:13:36;;;;;;;47.47;43.70;;;4.00;99.90;;;;;;4954037;28;20997;-76
2020/12/01 12:16:02;;;;;;;48.60;44.77;;;4.00;99.90;;;;;;4953733;28;20978;-74
2020/12/01 12:18:28;;;;;;;47.10;43.60;;;4.10;99.90;;;;;;4953794;29;20440;-75
2020/12/01 12:20:55;;;;;;;48.43;44.10;;;4.20;99.90;;;;;;4954065;28;20451;-76
2020/12/01 12:23:24;;;;;;;45.77;42.03;;;4.20;99.90;;;;;;4953639;28;20445;-75
2020/12/01 12:25:50;;;;;;;47.43;43.60;;;4.30;99.90;;;;;;4953379;28;20452;-74
2020/12/01 12:28:16;;;;;;;46.90;43.00;;;4.20;99.90;;;;;;4953631;28;20449;-73
2020/12/01 12:30:45;;;;;;;47.23;43.53;;;4.10;99.90;;;;;;4953872;28;20456;-74
2020/12/01 12:33:11;;;;;;;46.57;42.70;;;4.00;99.90;;;;;;4953591;28;20500;-74
2020/12/01 12:35:37;;;;;;;50.03;45.83;;;4.00;99.90;;;;;;4953448;28;20518;-74
2020/12/01 12:38:04;;;;;;;47.70;43.30;;;4.00;99.90;;;;;;4953534;28;20448;-74
2020/12/01 12:40:30;;;;;;;46.43;42.70;;;4.20;99.90;;;;;;4953514;28;20460;-74
2020/12/01 12:42:56;;;;;;;46.27;42.60;;;4.10;99.90;;;;;;4953284;28;20456;-75
2020/12/01 12:45:22;;;;;;;48.50;44.70;;;4.40;99.90;;;;;;4953442;28;20956;-76
2020/12/01 12:47:49;;;;;;;46.83;43.10;;;4.50;99.90;;;;;;4953312;28;20441;-76
2020/12/01 12:50:15;;;;;;;46.93;43.47;;;4.40;99.90;;;;;;4953167;28;20479;-75
2020/12/01 12:52:41;;;;;;;48.13;44.70;;;4.30;99.90;;;;;;4953333;28;20492;-76
2020/12/01 12:55:09;;;;;;;44.67;41.37;;;4.60;99.90;;;;;;4953162;28;20451;-76
2020/12/01 12:57:35;;;;;;;47.30;43.63;;;4.50;99.90;;;;;;4952606;28;20487;-77
2020/12/01 13:00:01;;;;;;;46.20;42.37;;;4.40;99.90;;;;;;4947664;28;20492;-77
2020/12/01 13:02:27;;;;;;;45.93;42.43;;;4.20;99.90;;;;;;4942458;29;20453;-77
2020/12/01 13:04:53;;;;;;;45.67;41.90;;;4.10;99.90;;;;;;4945807;29;20453;-77
2020/12/01 13:07:20;;;;;;;45.63;41.93;;;4.20;99.90;;;;;;4953358;28;20449;-77
2020/12/01 13:09:46;;;;;;;43.83;40.63;;;4.30;99.90;;;;;;4936661;29;20461;-77
2020/12/01 13:12:13;;;;;;;44.63;41.10;;;4.30;99.90;;;;;;4933831;29;20449;-75
2020/12/01 13:14:39;;;;;;;44.67;41.30;;;4.30;99.90;;;;;;4934078;29;20818;-78
2020/12/01 13:17:05;;;;;;;44.23;41.03;;;4.20;99.90;;;;;;4939086;28;20469;-78
2020/12/01 13:19:31;;;;;;;44.37;41.27;;;4.20;99.90;;;;;;4934085;29;20446;-78
2020/12/01 13:21:57;;;;;;;43.87;40.77;;;4.20;99.90;;;;;;4938027;29;20461;-78
2020/12/01 13:24:24;;;;;;;43.93;40.67;;;4.30;99.90;;;;;;4961679;28;20454;-78
2020/12/01 13:26:51;;;;;;;45.37;41.37;;;4.50;99.90;;;;;;4958528;28;20977;-79
2020/12/01 13:29:18;;;;;;;44.67;41.17;;;4.40;99.90;;;;;;4955875;28;20448;-79
2020/12/01 13:31:47;;;;;;;44.97;41.40;;;4.40;99.90;;;;;;4952964;28;20452;-80
2020/12/01 13:34:13;;;;;;;42.97;39.27;;;4.40;99.90;;;;;;4952398;28;20867;-80
2020/12/01 13:36:39;;;;;;;44.17;40.73;;;4.40;99.90;;;;;;4952844;28;20452;-79
2020/12/01 13:39:05;;;;;;;44.53;41.23;;;4.30;99.90;;;;;;4952823;28;20457;-80
2020/12/01 13:41:31;;;;;;;41.80;38.90;;;4.30;99.90;;;;;;4952697;28;20456;-79
2020/12/01 13:43:58;;;;;;;44.30;40.93;;;4.40;99.90;;;;;;4952937;28;20448;-82
2020/12/01 13:46:25;;;;;;;46.10;42.30;;;4.30;99.90;;;;;;4952982;28;20449;-83
2020/12/01 13:48:51;;;;;;;43.47;40.20;;;4.40;99.90;;;;;;4952788;28;20473;-83
2020/12/01 13:51:18;;;;;;;43.90;40.53;;;4.40;99.90;;;;;;4952781;28;20495;-82
2020/12/01 13:53:44;;;;;;;44.53;41.33;;;4.40;99.90;;;;;;4952702;28;20583;-83
2020/12/01 13:56:10;;;;;;;43.63;40.13;;;4.30;99.90;;;;;;4952790;28;20543;-83
2020/12/01 13:58:37;;;;;;;44.50;41.23;;;4.30;99.90;;;;;;4952576;28;20688;-84
2020/12/01 14:01:03;;;;;;;45.10;41.70;;;4.50;99.90;;;;;;4952498;28;20484;-83
2020/12/01 14:03:30;;;;;;;45.13;42.03;;;4.40;99.90;;;;;;4952372;28;20460;-83
2020/12/01 14:05:57;;;;;;;42.63;39.43;;;4.40;99.90;;;;;;4952863;28;20818;-82
2020/12/01 14:08:23;;;;;;;44.90;41.33;;;4.30;99.90;;;;;;4955323;28;20761;-77
2020/12/01 14:10:49;;;;;;;45.57;42.10;;;4.20;99.90;;;;;;4956184;28;20456;-75
2020/12/01 14:13:16;;;;;;;46.07;42.37;;;4.20;99.90;;;;;;4956245;28;20492;-82
2020/12/01 14:15:42;;;;;;;43.67;40.40;;;4.30;99.90;;;;;;4956211;28;20453;-81
2020/12/01 14:18:08;;;;;;;43.53;40.23;;;4.50;99.90;;;;;;4956283;28;20448;-76
2020/12/01 14:20:35;;;;;;;42.30;39.10;;;4.50;99.90;;;;;;4956287;28;20444;-79
2020/12/01 14:23:02;;;;;;;42.67;39.60;;;4.30;99.90;;;;;;4956440;28;20453;-82
2020/12/01 14:25:28;;;;;;;44.50;41.10;;;4.30;99.90;;;;;;4956144;28;20437;-82
2020/12/01 14:27:54;;;;;;;44.00;40.67;;;4.20;99.90;;;;;;4956152;28;20950;-82
2020/12/01 14:30:22;;;;;;;42.97;39.53;;;4.10;99.90;;;;;;4956065;28;20440;-82
2020/12/01 14:32:49;;;;;;;43.40;40.20;;;4.20;99.90;;;;;;4956273;28;20473;-82
2020/12/01 14:35:17;;;;;;;45.13;41.60;;;4.20;99.90;;;;;;4956087;28;20452;-83
2020/12/01 14:37:45;;;;;;;46.97;42.90;;;4.30;99.90;;;;;;4955983;29;20449;-83
2020/12/01 14:40:11;;;;;;;43.83;40.63;;;4.30;99.90;;;;;;4955970;28;20449;-84
2020/12/01 14:42:38;;;;;;;44.10;40.50;;;4.30;99.90;;;;;;4955841;28;20849;-83
2020/12/01 14:45:07;;;;;;;44.60;41.27;;;4.20;99.90;;;;;;4955923;28;20855;-84
2020/12/01 14:47:54;;;;;;;45.10;41.40;;;4.30;99.90;;;;;;4955663;28;20455;-83
2020/12/01 14:50:51;;;;;;;44.47;41.03;;;4.30;99.90;;;;;;4955470;29;21010;-82
2020/12/01 14:53:23;;;;;;;42.63;39.27;;;4.40;99.90;;;;;;4953844;28;20488;-82
2020/12/01 14:56:07;;;;;;;44.67;41.27;;;4.50;99.90;;;;;;4956025;28;20449;-84
2020/12/01 14:59:00;;;;;;;46.90;42.90;;;4.60;99.90;;;;;;4955846;29;20802;-84
2020/12/01 15:01:33;;;;;;;41.60;38.63;;;4.70;99.90;;;;;;4956378;29;20811;-80
2020/12/01 15:04:10;;;;;;;44.73;41.63;;;4.80;99.90;;;;;;4955536;28;20526;-83
2020/12/01 15:07:00;;;;;;;45.23;41.73;;;4.90;99.90;;;;;;4956061;28;20440;-85
2020/12/01 15:09:47;;;;;;;45.43;41.90;;;4.90;99.90;;;;;;4956533;29;20797;-84
2020/12/01 15:12:34;;;;;;;44.07;40.93;;;4.80;99.90;;;;;;4955676;28;20995;-83
2020/12/01 15:15:01;;;;;;;46.77;43.10;;;4.90;99.90;;;;;;4955934;28;20448;-83
2020/12/01 15:17:30;;;;;;;43.57;40.30;;;4.90;99.90;;;;;;4957106;28;20433;-85
2020/12/01 15:19:58;;;;;;;42.10;39.30;;;4.90;99.90;;;;;;4954521;28;20532;-85
2020/12/01 15:22:34;;;;;;;43.87;40.57;;;4.90;99.90;;;;;;4955614;28;20447;-84
2020/12/01 15:25:05;;;;;;;41.13;38.00;;;4.90;99.90;;;;;;4955804;28;20451;-85
2020/12/01 15:27:37;;;;;;;46.33;41.87;;;4.80;99.90;;;;;;4955508;28;20448;-85
2020/12/01 15:30:05;;;;;;;41.50;38.30;;;4.60;99.90;;;;;;4955522;28;20648;-85
2020/12/01 15:32:31;;;;;;;42.50;39.50;;;4.70;99.90;;;;;;4955048;28;20445;-84
2020/12/01 15:34:58;;;;;;;42.30;39.20;;;4.80;99.90;;;;;;4957309;28;20456;-84
2020/12/01 15:37:25;;;;;;;41.03;38.03;;;4.70;99.90;;;;;;4966025;28;20814;-83
2020/12/01 15:39:52;;;;;;;43.03;39.50;;;4.50;99.90;;;;;;4965993;28;20519;-84
2020/12/01 15:42:19;;;;;;;40.80;37.80;;;4.50;99.90;;;;;;4959726;28;20445;-84
2020/12/01 15:44:46;;;;;;;40.33;37.37;;;4.60;99.90;;;;;;4955819;28;20468;-85
2020/12/01 15:47:13;;;;;;;40.77;37.80;;;4.60;99.90;;;;;;4955344;28;20457;-86
2020/12/01 15:49:40;;;;;;;40.63;37.43;;;4.70;99.90;;;;;;4954815;28;20487;-84
2020/12/01 15:52:24;;;;;;;39.57;36.60;;;4.70;99.90;;;;;;4954920;28;20452;-84
2020/12/01 15:55:18;;;;;;;40.50;37.60;;;4.70;99.90;;;;;;4955247;28;20459;-85
2020/12/01 15:58:08;;;;;;;39.93;36.83;;;4.80;99.90;;;;;;4955158;28;20445;-85
2020/12/01 16:00:52;;;;;;;39.10;35.93;;;4.80;99.90;;;;;;4955695;28;20464;-85
2020/12/01 16:03:37;;;;;;;38.43;35.73;;;4.80;99.90;;;;;;4954418;28;20453;-84
2020/12/01 16:06:16;;;;;;;37.73;35.13;;;4.80;99.90;;;;;;4955756;28;20464;-85
2020/12/01 16:09:17;;;;;;;38.90;36.20;;;4.70;99.90;;;;;;4955549;28;20480;-85
2020/12/01 16:12:23;;;;;;;38.00;35.10;;;4.80;99.90;;;;;;4955582;28;20460;-85
2020/12/01 16:15:06;;;;;;;39.23;35.90;;;4.90;99.90;;;;;;4969082;28;20488;-84